KEKN/EKN METAR and TAF weather

Enter ICAO airport designator
Station Type Date Time Source
KEKN METAR 2021/10/20 05:51 UTC NOAA

KEKN 200551Z AUTO 00000KT 10SM CLR 06/04 A3023 RMK AO2 SLP242 T00560039 10089 20044 52001


Station Type Date Time Source
KEKN Decoded METAR 2021/10/20 05:51 UTC NOAA

JENNINGS RANDOLPH FIELD, WV, United States (KEKN) 38-53N 079-51W 603M
Oct 20, 2021 - 01:51 AM EDT / 2021.10.20 0551 UTC
Wind: Calm:0
Visibility: 10 mile(s):0
Sky conditions: clear
Temperature: 42.1 F (5.6 C)
Dew Point: 39.0 F (3.9 C)
Relative Humidity: 88%
Pressure (altimeter): 30.23 in. Hg (1023 hPa)
Pressure tendency: 0.00 inches (0.1 hPa) higher than three hours ago
ob: KEKN 200551Z AUTO 00000KT 10SM CLR 06/04 A3023 RMK AO2 SLP242 T00560039 10089 20044 52001
cycle: 6

Station Type Date Time Source
KEKN TAF 2021/10/20 06:22 UTC NOAA

TAF KEKN 200520Z 2006/2106 00000KT P6SM BKN200
FM201600 26005KT P6SM SKC
FM202200 VRB03KT P6SM SKC

Example: see airport list